Time,TemperatureF,DewpointF,PressureIn,WindDirection,WindDirectionDegrees,WindSpeedMPH,WindSpeedGustMPH,Humidity,HourlyPrecipIn,Conditions,Clouds,dailyrainin,SolarRadiationWatts/m^2,SoftwareType,DateUTC
2013-04-17 00:00:00,61.2,53.6,30.00,SW,215,2.3,2.3,76,0.00,SCT,,0.00,0.0,WeatherDisplay:10.37,2013-04-17 04:00:00,
2013-04-17 00:01:00,61.2,53.6,30.00,SW,215,3.5,3.5,76,0.00,BKN,,0.00,0.0,WeatherDisplay:10.37,2013-04-17 04:01:00,
2013-04-17 00:03:00,61.2,53.6,30.00,WSW,250,2.0,2.0,76,0.00,BKN,,0.00,0.0,WeatherDisplay:10.37,2013-04-17 04:03:00,
2013-04-17 00:08:00,61.2,53.6,30.00,SSW,213,2.3,2.3,76,0.00,BKN,,0.00,0.0,WeatherDisplay:10.37,2013-04-17 04:08:00,
2013-04-17 00:13:00,61.2,53.6,30.00,SW,220,1.1,0.0,76,0.00,BKN,,0.00,0.0,WeatherDisplay:10.37,2013-04-17 04:13:00,
2013-04-17 00:16:00,61.2,53.6,30.00,SW,219,2.3,2.3,76,0.00,BKN,,0.00,0.0,WeatherDisplay:10.37,2013-04-17 04:16:00,
2013-04-17 00:22:00,61.0,53.7,30.00,SW,222,2.3,2.3,77,0.00,BKN,,0.00,0.0,WeatherDisplay:10.37,2013-04-17 04:22:00,
2013-04-17 00:27:00,61.0,53.7,30.00,SW,226,2.3,2.3,77,0.00,BKN,,0.00,0.0,WeatherDisplay:10.37,2013-04-17 04:27:00,
2013-04-17 00:32:00,61.0,53.7,29.99,SW,219,3.5,3.5,77,0.00,BKN,,0.00,0.0,WeatherDisplay:10.37,2013-04-17 04:32:00,
2013-04-17 00:37:00,60.9,53.6,29.99,SW,223,1.1,1.1,77,0.00,BKN,,0.00,0.0,WeatherDisplay:10.37,2013-04-17 04:37:00,
2013-04-17 00:42:00,60.9,54.0,29.99,SW,220,3.0,3.0,78,0.00,BKN,,0.00,0.0,WeatherDisplay:10.37,2013-04-17 04:42:00,
2013-04-17 00:47:00,60.9,54.0,29.99,SSW,205,3.5,3.5,78,0.00,BKN,,0.00,0.0,WeatherDisplay:10.37,2013-04-17 04:47:00,
2013-04-17 00:52:00,60.9,54.0,29.99,SW,219,1.1,1.1,78,0.00,BKN,,0.00,0.0,WeatherDisplay:10.37,2013-04-17 04:52:00,
2013-04-17 00:57:00,60.7,53.8,29.99,SW,219,1.1,1.1,78,0.00,BKN,,0.00,0.0,WeatherDisplay:10.37,2013-04-17 04:57:00,
2013-04-17 01:02:00,60.7,53.8,29.99,SW,216,1.1,1.1,78,0.00,BKN,,0.00,0.0,WeatherDisplay:10.37,2013-04-17 05:02:00,
2013-04-17 01:07:00,60.5,53.6,29.99,SW,217,0.0,0.1,78,0.00,BKN,,0.00,0.0,WeatherDisplay:10.37,2013-04-17 05:07:00,
2013-04-17 01:12:00,60.5,54.0,29.99,SW,216,1.1,1.1,79,0.00,BKN,,0.00,0.0,WeatherDisplay:10.37,2013-04-17 05:12:00,
2013-04-17 01:17:00,60.4,53.9,29.99,SW,230,1.1,1.1,79,0.00,BKN,,0.00,0.0,WeatherDisplay:10.37,2013-04-17 05:17:00,
2013-04-17 01:22:00,60.4,53.9,29.99,SSW,213,3.5,3.5,79,0.00,BKN,,0.00,0.0,WeatherDisplay:10.37,2013-04-17 05:22:00,
2013-04-17 01:27:00,60.5,54.0,29.99,SW,217,3.5,3.5,79,0.00,BKN,,0.00,0.0,WeatherDisplay:10.37,2013-04-17 05:27:00,
2013-04-17 01:32:00,60.5,54.0,29.99,SW,229,1.1,0.0,79,0.00,BKN,,0.00,0.0,WeatherDisplay:10.37,2013-04-17 05:32:00,
2013-04-17 01:38:00,60.7,54.1,29.99,SW,220,1.1,1.1,79,0.00,BKN,,0.00,0.0,WeatherDisplay:10.37,2013-04-17 05:38:00,
2013-04-17 01:43:00,60.7,54.1,29.99,SW,234,1.1,1.1,79,0.00,BKN,,0.00,0.0,WeatherDisplay:10.37,2013-04-17 05:43:00,
2013-04-17 01:48:00,60.7,54.1,29.99,North,0,4.6,4.6,79,0.00,BKN,,0.00,0.0,WeatherDisplay:10.37,2013-04-17 05:48:00,
2013-04-17 01:53:00,60.5,54.0,29.99,SW,220,3.5,3.5,79,0.00,BKN,,0.00,0.0,WeatherDisplay:10.37,2013-04-17 05:53:00,
2013-04-17 01:58:00,60.5,54.0,29.99,SW,236,4.6,4.6,79,0.00,BKN,,0.00,0.0,WeatherDisplay:10.37,2013-04-17 05:58:00,
2013-04-17 02:03:00,60.5,54.0,29.98,SW,224,3.5,3.5,79,0.00,OVC,,0.00,0.0,WeatherDisplay:10.37,2013-04-17 06:03:00,
2013-04-17 02:08:00,60.7,54.1,29.98,SSW,205,4.6,4.6,79,0.00,OVC,,0.00,0.0,WeatherDisplay:10.37,2013-04-17 06:08:00,
2013-04-17 02:13:00,60.7,54.1,29.98,SW,220,3.5,3.5,79,0.00,OVC,,0.00,0.0,WeatherDisplay:10.37,2013-04-17 06:13:00,
2013-04-17 02:18:00,60.7,54.5,29.98,SW,226,3.5,3.5,80,0.00,OVC,,0.00,0.0,WeatherDisplay:10.37,2013-04-17 06:18:00,
2013-04-17 02:23:00,60.7,54.5,29.98,WSW,243,5.8,5.8,80,0.00,OVC,,0.00,0.0,WeatherDisplay:10.37,2013-04-17 06:23:00,
2013-04-17 02:28:00,60.7,54.5,29.98,SW,219,3.5,3.5,80,0.00,OVC,,0.00,0.0,WeatherDisplay:10.37,2013-04-17 06:28:00,
2013-04-17 02:33:00,60.7,54.5,29.97,SSW,209,2.3,2.3,80,0.00,OVC,,0.00,0.0,WeatherDisplay:10.37,2013-04-17 06:33:00,
2013-04-17 02:38:00,60.7,54.5,29.97,SW,230,2.3,2.3,80,0.00,OVC,,0.00,0.0,WeatherDisplay:10.37,2013-04-17 06:38:00,
2013-04-17 02:43:00,60.7,54.5,29.97,SW,217,3.5,3.5,80,0.00,OVC,,0.00,0.0,WeatherDisplay:10.37,2013-04-17 06:43:00,
2013-04-17 02:48:00,60.7,54.5,29.97,SW,222,3.5,3.5,80,0.00,OVC,,0.00,0.0,WeatherDisplay:10.37,2013-04-17 06:48:00,
2013-04-17 02:53:00,60.7,54.5,29.97,SW,224,2.3,2.3,80,0.00,OVC,,0.00,0.0,WeatherDisplay:10.37,2013-04-17 06:53:00,
2013-04-17 02:58:00,60.7,54.8,29.97,SW,229,1.1,1.2,81,0.00,OVC,,0.00,0.0,WeatherDisplay:10.37,2013-04-17 06:58:00,
2013-04-17 03:03:00,60.7,54.8,29.97,SSW,208,6.0,6.0,81,0.00,OVC,,0.00,0.0,WeatherDisplay:10.37,2013-04-17 07:03:00,
2013-04-17 03:08:00,60.7,54.8,29.97,SW,217,2.3,0.0,81,0.00,OVC,,0.00,0.0,WeatherDisplay:10.37,2013-04-17 07:08:00,
2013-04-17 03:13:00,60.7,54.8,29.97,SW,219,3.5,3.5,81,0.00,OVC,,0.00,0.0,WeatherDisplay:10.37,2013-04-17 07:13:00,
2013-04-17 03:18:00,60.7,54.8,29.97,NNE,18,1.1,1.1,81,0.00,OVC,,0.00,0.0,WeatherDisplay:10.37,2013-04-17 07:18:00,
2013-04-17 03:23:00,60.7,54.8,29.97,SW,216,2.3,2.3,81,0.00,OVC,,0.00,0.0,WeatherDisplay:10.37,2013-04-17 07:23:00,
2013-04-17 03:28:00,60.7,54.8,29.97,SW,220,2.3,2.3,81,0.00,OVC,,0.00,0.0,WeatherDisplay:10.37,2013-04-17 07:28:00,
2013-04-17 03:33:00,60.7,54.8,29.97,SSW,205,1.1,1.1,81,0.00,OVC,,0.00,0.0,WeatherDisplay:10.37,2013-04-17 07:33:00,
2013-04-17 03:38:00,60.5,54.6,29.97,SW,227,2.3,2.3,81,0.00,OVC,,0.00,0.0,WeatherDisplay:10.37,2013-04-17 07:38:00,
2013-04-17 03:43:00,60.7,54.8,29.97,SW,227,1.1,0.0,81,0.00,OVC,,0.00,0.0,WeatherDisplay:10.37,2013-04-17 07:43:00,
2013-04-17 03:48:00,60.7,54.8,29.97,SW,219,1.1,0.0,81,0.00,OVC,,0.00,0.0,WeatherDisplay:10.37,2013-04-17 07:48:00,
2013-04-17 03:53:00,60.7,54.8,29.97,SW,219,1.1,1.1,81,0.00,OVC,,0.00,0.0,WeatherDisplay:10.37,2013-04-17 07:53:00,
2013-04-17 03:58:00,60.5,54.6,29.97,SW,219,1.1,0.0,81,0.00,OVC,,0.00,0.0,WeatherDisplay:10.37,2013-04-17 07:58:00,
2013-04-17 04:03:00,60.5,54.6,29.96,SW,219,1.1,1.1,81,0.00,BKN,,0.00,0.0,WeatherDisplay:10.37,2013-04-17 08:03:00,
2013-04-17 04:08:00,60.5,55.0,29.96,SW,219,0.0,0.0,82,0.00,BKN,,0.00,0.0,WeatherDisplay:10.37,2013-04-17 08:08:00,
2013-04-17 04:13:00,60.5,55.0,29.96,WSW,250,1.1,1.1,82,0.00,BKN,,0.00,0.0,WeatherDisplay:10.37,2013-04-17 08:13:00,
2013-04-17 04:18:00,60.5,55.6,29.95,WSW,254,2.3,2.3,84,0.01,RA,,0.01,0.0,WeatherDisplay:10.37,2013-04-17 08:18:00,
2013-04-17 04:23:00,60.4,55.9,29.95,WSW,254,0.0,0.0,85,0.01,RA,,0.01,0.0,WeatherDisplay:10.37,2013-04-17 08:23:00,
2013-04-17 04:28:00,60.4,55.9,29.95,WSW,254,0.0,0.0,85,0.01,BKN,,0.01,0.0,WeatherDisplay:10.37,2013-04-17 08:28:00,
2013-04-17 04:33:00,60.2,55.7,29.94,WSW,254,0.0,0.0,85,0.01,BKN,,0.01,0.0,WeatherDisplay:10.37,2013-04-17 08:33:00,
2013-04-17 04:38:00,60.1,55.6,29.94,WSW,254,0.0,0.0,85,0.01,BKN,,0.01,0.0,WeatherDisplay:10.37,2013-04-17 08:38:00,
2013-04-17 04:43:00,60.1,55.6,29.94,WSW,254,0.0,0.0,85,0.01,BKN,,0.01,0.0,WeatherDisplay:10.37,2013-04-17 08:43:00,
2013-04-17 04:48:00,59.9,55.7,29.93,WSW,254,0.0,0.0,86,0.01,BKN,,0.01,0.0,WeatherDisplay:10.37,2013-04-17 08:48:00,
2013-04-17 04:53:00,59.9,55.7,29.93,WSW,254,0.0,0.0,86,0.01,BKN,,0.01,0.0,WeatherDisplay:10.37,2013-04-17 08:53:00,
2013-04-17 04:58:00,59.8,55.6,29.93,WSW,254,0.0,0.0,86,0.01,BKN,,0.01,0.0,WeatherDisplay:10.37,2013-04-17 08:58:00,
2013-04-17 05:03:00,59.8,55.6,29.93,WSW,254,0.0,0.0,86,0.01,BKN,,0.01,0.0,WeatherDisplay:10.37,2013-04-17 09:03:00,
2013-04-17 05:08:00,59.6,55.7,29.93,WSW,254,0.0,0.0,87,0.01,BKN,,0.01,0.0,WeatherDisplay:10.37,2013-04-17 09:08:00,
2013-04-17 05:13:00,59.6,56.0,29.93,WSW,254,0.0,0.0,88,0.01,BKN,,0.01,0.0,WeatherDisplay:10.37,2013-04-17 09:13:00,
2013-04-17 05:18:00,59.5,55.9,29.94,WSW,254,0.0,0.0,88,0.00,OVC,,0.01,0.0,WeatherDisplay:10.37,2013-04-17 09:18:00,
2013-04-17 05:23:00,59.3,56.1,29.94,WSW,254,0.0,0.0,89,0.00,OVC,,0.01,0.0,WeatherDisplay:10.37,2013-04-17 09:23:00,
2013-04-17 05:28:00,59.2,56.0,29.94,WSW,254,0.0,0.0,89,0.00,OVC,,0.01,0.0,WeatherDisplay:10.37,2013-04-17 09:28:00,
2013-04-17 05:33:00,59.2,56.0,29.96,WSW,254,0.0,0.0,89,0.00,OVC,,0.01,0.0,WeatherDisplay:10.37,2013-04-17 09:33:00,
2013-04-17 05:38:00,59.0,56.1,29.96,WSW,254,0.0,0.0,90,0.00,OVC,,0.01,0.0,WeatherDisplay:10.37,2013-04-17 09:38:00,
2013-04-17 05:43:00,58.9,56.0,29.96,WSW,254,0.0,0.0,90,0.00,OVC,,0.01,0.0,WeatherDisplay:10.37,2013-04-17 09:43:00,
2013-04-17 05:48:00,58.9,56.0,29.97,WSW,254,1.1,0.0,90,0.00,OVC,,0.01,0.0,WeatherDisplay:10.37,2013-04-17 09:48:00,
2013-04-17 05:53:00,58.9,56.0,29.97,WSW,254,0.0,0.0,90,0.00,OVC,,0.01,0.0,WeatherDisplay:10.37,2013-04-17 09:53:00,
2013-04-17 05:58:00,58.9,56.0,29.97,WSW,254,0.0,0.0,90,0.00,OVC,,0.01,0.0,WeatherDisplay:10.37,2013-04-17 09:58:00,
2013-04-17 06:03:00,58.9,56.3,29.97,WSW,254,0.0,0.0,91,0.00,OVC,,0.01,0.0,WeatherDisplay:10.37,2013-04-17 10:03:00,
2013-04-17 06:08:00,58.9,56.3,29.97,WSW,254,0.0,0.0,91,0.00,OVC,,0.01,0.0,WeatherDisplay:10.37,2013-04-17 10:08:00,
2013-04-17 06:13:00,58.9,56.3,29.97,WSW,254,0.0,0.0,91,0.00,OVC,,0.01,0.0,WeatherDisplay:10.37,2013-04-17 10:13:00,
2013-04-17 06:18:00,58.9,56.3,29.97,WSW,254,0.0,0.0,91,0.00,OVC,,0.01,0.0,WeatherDisplay:10.37,2013-04-17 10:18:00,
2013-04-17 06:23:00,58.9,56.3,29.97,WSW,254,0.0,0.0,91,0.00,OVC,,0.01,5.0,WeatherDisplay:10.37,2013-04-17 10:23:00,
2013-04-17 06:28:00,58.7,56.1,29.97,WSW,254,0.0,0.0,91,0.00,OVC,,0.01,5.0,WeatherDisplay:10.37,2013-04-17 10:28:00,
2013-04-17 06:33:00,58.7,56.1,29.98,WSW,254,0.0,0.0,91,0.00,OVC,,0.01,5.0,WeatherDisplay:10.37,2013-04-17 10:33:00,
2013-04-17 06:38:00,58.7,56.1,29.98,WSW,254,0.0,0.0,91,0.00,OVC,,0.01,7.0,WeatherDisplay:10.37,2013-04-17 10:38:00,
2013-04-17 06:43:00,58.9,56.3,29.98,WSW,254,0.0,0.0,91,0.00,OVC,,0.01,9.0,WeatherDisplay:10.37,2013-04-17 10:43:00,
2013-04-17 06:48:00,58.9,56.3,29.99,WSW,254,0.0,0.0,91,0.00,OVC,,0.01,9.0,WeatherDisplay:10.37,2013-04-17 10:48:00,
2013-04-17 06:53:00,58.9,56.6,29.99,WSW,254,0.0,0.0,92,0.00,OVC,,0.01,11.0,WeatherDisplay:10.37,2013-04-17 10:53:00,
2013-04-17 06:58:00,58.9,56.6,29.99,WSW,254,0.0,0.0,92,0.00,OVC,,0.01,9.0,WeatherDisplay:10.37,2013-04-17 10:58:00,
2013-04-17 07:03:00,58.9,56.6,30.01,WSW,254,1.1,0.0,92,0.00,OVC,,0.01,12.0,WeatherDisplay:10.37,2013-04-17 11:03:00,
2013-04-17 07:09:00,58.9,56.6,30.01,WSW,254,0.0,0.0,92,0.00,OVC,,0.01,25.0,WeatherDisplay:10.37,2013-04-17 11:09:00,
2013-04-17 07:14:00,59.0,56.7,30.02,WSW,254,0.0,0.0,92,0.00,OVC,,0.01,16.0,WeatherDisplay:10.37,2013-04-17 11:14:00,
2013-04-17 07:19:00,59.0,56.7,30.02,WSW,254,0.0,0.0,92,0.00,OVC,,0.01,14.0,WeatherDisplay:10.37,2013-04-17 11:19:00,
2013-04-17 07:24:00,59.0,56.7,30.02,WSW,254,0.0,0.0,92,0.00,OVC,,0.01,25.0,WeatherDisplay:10.37,2013-04-17 11:24:00,
2013-04-17 07:29:00,59.0,56.7,30.02,WSW,254,0.0,0.0,92,0.00,OVC,,0.01,26.0,WeatherDisplay:10.37,2013-04-17 11:29:00,
2013-04-17 07:34:00,59.0,56.7,30.02,WSW,254,1.0,1.0,92,0.00,OVC,,0.01,18.0,WeatherDisplay:10.37,2013-04-17 11:34:00,
2013-04-17 07:39:00,59.2,56.9,30.02,WSW,254,2.3,2.3,92,0.00,OVC,,0.01,12.0,WeatherDisplay:10.37,2013-04-17 11:39:00,
2013-04-17 07:44:00,59.0,56.4,30.03,North,353,11.5,11.5,91,0.00,OVC,,0.01,14.0,WeatherDisplay:10.37,2013-04-17 11:44:00,
2013-04-17 07:49:00,58.4,55.2,30.03,NNW,347,10.4,10.4,89,0.00,OVC,,0.01,16.0,WeatherDisplay:10.37,2013-04-17 11:49:00,
2013-04-17 07:54:00,57.6,54.1,30.03,NNW,333,4.6,4.6,88,0.00,OVC,,0.01,26.0,WeatherDisplay:10.37,2013-04-17 11:54:00,
2013-04-17 07:59:00,57.2,53.0,30.04,NNW,329,4.6,4.6,86,0.00,OVC,,0.01,33.0,WeatherDisplay:10.37,2013-04-17 11:59:00,
2013-04-17 08:04:00,56.7,52.2,30.04,North,353,6.9,6.9,85,0.00,OVC,,0.01,30.0,WeatherDisplay:10.37,2013-04-17 12:04:00,
2013-04-17 08:09:00,56.6,51.8,30.04,North,354,8.1,8.1,84,0.00,OVC,,0.01,37.0,WeatherDisplay:10.37,2013-04-17 12:09:00,
2013-04-17 08:14:00,56.5,51.4,30.05,North,353,1.1,0.0,83,0.00,OVC,,0.01,46.0,WeatherDisplay:10.37,2013-04-17 12:14:00,
2013-04-17 08:19:00,56.5,51.4,30.05,NNW,340,3.5,0.0,83,0.00,OVC,,0.01,70.0,WeatherDisplay:10.37,2013-04-17 12:19:00,
2013-04-17 08:24:00,56.5,51.1,30.05,NE,38,4.6,4.6,82,0.00,OVC,,0.01,86.0,WeatherDisplay:10.37,2013-04-17 12:24:00,
2013-04-17 08:29:00,56.5,50.1,30.04,East,100,4.6,4.6,79,0.00,OVC,,0.01,123.0,WeatherDisplay:10.37,2013-04-17 12:29:00,
2013-04-17 08:34:00,56.5,49.7,30.04,NNW,328,5.0,5.0,78,0.00,OVC,,0.01,86.0,WeatherDisplay:10.37,2013-04-17 12:34:00,
2013-04-17 08:39:00,56.6,49.5,30.04,NNW,337,2.3,2.3,77,0.00,OVC,,0.01,76.0,WeatherDisplay:10.37,2013-04-17 12:39:00,
2013-04-17 08:44:00,56.7,49.6,30.05,NW,315,3.0,3.0,77,0.00,OVC,,0.01,56.0,WeatherDisplay:10.37,2013-04-17 12:44:00,
2013-04-17 08:49:00,56.7,49.2,30.05,NNW,330,8.1,8.1,76,0.00,OVC,,0.01,56.0,WeatherDisplay:10.37,2013-04-17 12:49:00,
2013-04-17 08:54:00,56.6,48.8,30.05,NNE,14,3.5,3.5,75,0.00,OVC,,0.01,58.0,WeatherDisplay:10.37,2013-04-17 12:54:00,
2013-04-17 08:59:00,56.6,48.4,30.07,NNW,332,3.5,3.5,74,0.00,OVC,,0.01,67.0,WeatherDisplay:10.37,2013-04-17 12:59:00,
2013-04-17 09:04:00,56.5,48.3,30.07,NNW,340,4.6,4.6,74,0.00,OVC,,0.01,69.0,WeatherDisplay:10.37,2013-04-17 13:04:00,
2013-04-17 09:09:00,56.5,47.6,30.07,NW,325,4.6,4.6,72,0.00,OVC,,0.01,79.0,WeatherDisplay:10.37,2013-04-17 13:09:00,
2013-04-17 09:14:00,56.3,47.4,30.07,NNW,335,4.6,4.6,72,0.00,OVC,,0.01,100.0,WeatherDisplay:10.37,2013-04-17 13:14:00,
2013-04-17 09:19:00,56.3,47.0,30.07,NNW,337,4.6,4.6,71,0.00,OVC,,0.01,121.0,WeatherDisplay:10.37,2013-04-17 13:19:00,
2013-04-17 09:24:00,56.5,47.2,30.07,NNE,20,1.1,1.1,71,0.00,OVC,,0.01,137.0,WeatherDisplay:10.37,2013-04-17 13:24:00,
2013-04-17 09:29:00,56.5,47.2,30.07,NNW,336,5.8,5.8,71,0.00,OVC,,0.01,165.0,WeatherDisplay:10.37,2013-04-17 13:29:00,
2013-04-17 09:34:00,56.6,46.9,30.07,NNW,343,6.9,6.9,70,0.00,OVC,,0.01,171.0,WeatherDisplay:10.37,2013-04-17 13:34:00,
2013-04-17 09:39:00,56.7,46.6,30.07,NNW,337,3.5,3.5,69,0.00,OVC,,0.01,169.0,WeatherDisplay:10.37,2013-04-17 13:39:00,
2013-04-17 09:44:00,57.0,46.9,30.07,NNW,335,2.3,2.3,69,0.00,OVC,,0.01,194.0,WeatherDisplay:10.37,2013-04-17 13:44:00,
2013-04-17 09:49:00,57.2,46.3,30.07,NNW,343,5.8,5.8,67,0.00,OVC,,0.01,296.0,WeatherDisplay:10.37,2013-04-17 13:49:00,
2013-04-17 09:54:00,57.6,46.3,30.07,NW,315,6.9,6.9,66,0.00,OVC,,0.01,524.0,WeatherDisplay:10.37,2013-04-17 13:54:00,
2013-04-17 09:59:00,58.0,45.9,30.07,NW,322,3.5,3.5,64,0.00,OVC,,0.01,320.0,WeatherDisplay:10.37,2013-04-17 13:59:00,
2013-04-17 10:04:00,58.3,46.2,30.07,NNW,339,4.6,4.6,64,0.00,OVC,,0.01,248.0,WeatherDisplay:10.37,2013-04-17 14:04:00,
2013-04-17 10:09:00,58.4,46.3,30.07,SW,234,4.6,4.6,64,0.00,OVC,,0.01,260.0,WeatherDisplay:10.37,2013-04-17 14:09:00,
2013-04-17 10:14:00,58.7,46.5,30.07,NNW,328,4.6,4.6,64,0.00,OVC,,0.01,266.0,WeatherDisplay:10.37,2013-04-17 14:14:00,
2013-04-17 10:19:00,59.0,46.0,30.07,NNW,340,5.0,5.0,62,0.00,OVC,,0.01,243.0,WeatherDisplay:10.37,2013-04-17 14:19:00,
2013-04-17 10:24:00,59.2,46.2,30.07,NNW,337,5.0,5.0,62,0.00,OVC,,0.01,290.0,WeatherDisplay:10.37,2013-04-17 14:24:00,
2013-04-17 10:29:00,59.3,45.8,30.07,NW,323,5.8,5.8,61,0.00,OVC,,0.01,220.0,WeatherDisplay:10.37,2013-04-17 14:29:00,
2013-04-17 10:34:00,59.3,46.3,30.07,NNW,336,3.0,3.0,62,0.00,OVC,,0.01,227.0,WeatherDisplay:10.37,2013-04-17 14:34:00,
2013-04-17 10:39:00,59.3,45.8,30.07,NNE,25,6.9,6.9,61,0.00,OVC,,0.01,287.0,WeatherDisplay:10.37,2013-04-17 14:39:00,
2013-04-17 10:44:00,59.2,45.8,30.07,North,352,5.8,5.8,61,0.00,OVC,,0.01,262.0,WeatherDisplay:10.37,2013-04-17 14:44:00,
2013-04-17 10:49:00,59.2,45.8,30.07,WNW,295,11.5,11.5,61,0.00,OVC,,0.01,230.0,WeatherDisplay:10.37,2013-04-17 14:49:00,
2013-04-17 10:54:00,59.2,45.8,30.07,North,353,3.5,3.5,61,0.00,OVC,,0.01,148.0,WeatherDisplay:10.37,2013-04-17 14:54:00,
2013-04-17 10:59:00,59.2,45.8,30.07,North,354,1.1,1.1,61,0.00,OVC,,0.01,255.0,WeatherDisplay:10.37,2013-04-17 14:59:00,
2013-04-17 11:04:00,59.3,45.4,30.07,North,4,3.5,3.5,60,0.00,OVC,,0.01,391.0,WeatherDisplay:10.37,2013-04-17 15:04:00,
2013-04-17 11:09:00,59.5,44.7,30.07,NNW,342,5.8,5.8,58,0.00,OVC,,0.01,338.0,WeatherDisplay:10.37,2013-04-17 15:09:00,
2013-04-17 11:14:00,59.6,44.8,30.07,NNW,340,9.2,9.2,58,0.00,OVC,,0.01,322.0,WeatherDisplay:10.37,2013-04-17 15:14:00,
2013-04-17 11:19:00,59.9,45.1,30.07,North,350,1.1,1.1,58,0.00,OVC,,0.01,285.0,WeatherDisplay:10.37,2013-04-17 15:19:00,
2013-04-17 11:24:00,60.1,44.3,30.07,WNW,295,6.0,6.0,56,0.00,OVC,,0.01,269.0,WeatherDisplay:10.37,2013-04-17 15:24:00,
2013-04-17 11:29:00,60.1,44.3,30.07,NNW,333,2.3,2.3,56,0.00,OVC,,0.01,311.0,WeatherDisplay:10.37,2013-04-17 15:29:00,
2013-04-17 11:34:00,60.2,44.4,30.07,NNW,333,0.0,0.0,56,0.00,OVC,,0.01,304.0,WeatherDisplay:10.37,2013-04-17 15:34:00,
2013-04-17 11:39:00,60.5,44.2,30.07,NW,316,2.3,2.3,55,0.00,OVC,,0.01,311.0,WeatherDisplay:10.37,2013-04-17 15:39:00,
2013-04-17 11:44:00,60.9,44.6,30.07,NNW,344,7.0,7.0,55,0.00,OVC,,0.01,315.0,WeatherDisplay:10.37,2013-04-17 15:44:00,
2013-04-17 11:49:00,61.0,44.7,30.07,NNW,342,3.5,3.5,55,0.00,OVC,,0.01,303.0,WeatherDisplay:10.37,2013-04-17 15:49:00,
2013-04-17 11:54:00,61.0,44.7,30.07,North,0,4.6,4.6,55,0.00,OVC,,0.01,350.0,WeatherDisplay:10.37,2013-04-17 15:54:00,
2013-04-17 11:59:00,61.2,44.9,30.07,North,356,3.5,3.5,55,0.00,OVC,,0.01,398.0,WeatherDisplay:10.37,2013-04-17 15:59:00,
2013-04-17 12:04:00,61.3,45.0,30.07,WNW,294,3.5,3.5,55,0.00,OVC,,0.01,435.0,WeatherDisplay:10.37,2013-04-17 16:04:00,
2013-04-17 12:09:00,61.6,45.3,30.07,NW,319,1.1,1.1,55,0.00,OVC,,0.01,387.0,WeatherDisplay:10.37,2013-04-17 16:09:00,
2013-04-17 12:14:00,61.8,45.5,30.06,NW,306,3.5,3.5,55,0.00,OVC,,0.01,329.0,WeatherDisplay:10.37,2013-04-17 16:14:00,
2013-04-17 12:19:00,62.1,45.2,30.06,NNW,342,3.5,3.5,54,0.00,OVC,,0.01,236.0,WeatherDisplay:10.37,2013-04-17 16:19:00,
2013-04-17 12:24:00,62.3,45.4,30.06,NNW,335,2.3,2.3,54,0.00,OVC,,0.01,158.0,WeatherDisplay:10.37,2013-04-17 16:24:00,
2013-04-17 12:29:00,62.4,45.5,30.06,NNW,332,2.0,2.0,54,0.00,OVC,,0.01,421.0,WeatherDisplay:10.37,2013-04-17 16:29:00,
2013-04-17 12:34:00,62.7,45.8,30.06,West,267,5.0,5.0,54,0.00,OVC,,0.01,385.0,WeatherDisplay:10.37,2013-04-17 16:34:00,
2013-04-17 12:39:00,63.2,45.8,30.06,NW,312,2.3,2.3,53,0.00,OVC,,0.01,331.0,WeatherDisplay:10.37,2013-04-17 16:39:00,
2013-04-17 12:44:00,63.4,45.5,30.06,North,350,3.5,3.5,52,0.00,OVC,,0.01,276.0,WeatherDisplay:10.37,2013-04-17 16:44:00,
2013-04-17 12:49:00,63.5,45.6,30.06,NNW,328,0.0,0.1,52,0.00,OVC,,0.01,296.0,WeatherDisplay:10.37,2013-04-17 16:49:00,
2013-04-17 12:54:00,63.7,46.2,30.06,NW,304,1.1,0.0,53,0.00,OVC,,0.01,289.0,WeatherDisplay:10.37,2013-04-17 16:54:00,
2013-04-17 12:59:00,63.9,45.4,30.06,NW,311,3.5,3.5,51,0.00,OVC,,0.01,310.0,WeatherDisplay:10.37,2013-04-17 16:59:00,
2013-04-17 13:04:00,64.0,46.0,30.06,NNW,337,2.3,2.3,52,0.00,OVC,,0.01,370.0,WeatherDisplay:10.37,2013-04-17 17:04:00,
2013-04-17 13:09:00,64.2,45.7,30.06,NW,318,1.1,1.1,51,0.00,OVC,,0.01,440.0,WeatherDisplay:10.37,2013-04-17 17:09:00,
2013-04-17 13:14:00,64.7,46.1,30.05,West,278,4.6,4.6,51,0.00,OVC,,0.01,361.0,WeatherDisplay:10.37,2013-04-17 17:14:00,
2013-04-17 13:19:00,64.8,45.7,30.05,NNW,342,4.6,4.6,50,0.00,OVC,,0.01,315.0,WeatherDisplay:10.37,2013-04-17 17:19:00,
2013-04-17 13:24:00,65.0,46.4,30.05,NW,316,2.3,0.0,51,0.00,OVC,,0.01,389.0,WeatherDisplay:10.37,2013-04-17 17:24:00,
2013-04-17 13:29:00,65.3,46.2,30.05,WNW,301,4.6,4.6,50,0.00,OVC,,0.01,389.0,WeatherDisplay:10.37,2013-04-17 17:29:00,
2013-04-17 13:34:00,65.6,45.9,30.05,NW,323,1.1,1.1,49,0.00,OVC,,0.01,361.0,WeatherDisplay:10.37,2013-04-17 17:34:00,
2013-04-17 13:39:00,65.6,45.9,30.05,NW,326,1.1,1.1,49,0.00,OVC,,0.01,452.0,WeatherDisplay:10.37,2013-04-17 17:39:00,
2013-04-17 13:44:00,66.1,46.4,30.05,WSW,258,1.1,1.1,49,0.00,OVC,,0.01,1035.0,WeatherDisplay:10.37,2013-04-17 17:44:00,
2013-04-17 13:49:00,66.8,45.9,30.05,NNW,346,2.3,2.3,47,0.00,OVC,,0.01,948.0,WeatherDisplay:10.37,2013-04-17 17:49:00,
2013-04-17 13:54:00,67.4,45.9,30.05,NNW,346,1.1,0.0,46,0.00,OVC,,0.01,845.0,WeatherDisplay:10.37,2013-04-17 17:54:00,
2013-04-17 13:59:00,67.9,46.3,30.05,NW,316,1.1,1.1,46,0.00,OVC,,0.01,820.0,WeatherDisplay:10.37,2013-04-17 17:59:00,
2013-04-17 14:04:00,68.3,46.7,30.05,NW,311,3.5,3.5,46,0.00,BKN,,0.01,820.0,WeatherDisplay:10.37,2013-04-17 18:04:00,
2013-04-17 14:09:00,68.8,46.6,30.05,WNW,292,2.3,2.3,45,0.00,BKN,,0.01,538.0,WeatherDisplay:10.37,2013-04-17 18:09:00,
2013-04-17 14:14:00,69.1,45.7,30.05,WNW,291,1.1,1.1,43,0.00,BKN,,0.01,431.0,WeatherDisplay:10.37,2013-04-17 18:14:00,
2013-04-17 14:19:00,69.8,45.7,30.05,NW,316,3.5,3.5,42,0.00,BKN,,0.01,815.0,WeatherDisplay:10.37,2013-04-17 18:19:00,
2013-04-17 14:24:00,70.3,44.2,30.05,North,359,3.0,3.0,39,0.00,BKN,,0.01,809.0,WeatherDisplay:10.37,2013-04-17 18:24:00,
2013-04-17 14:29:00,70.6,43.7,30.05,NNW,339,8.0,8.0,38,0.00,BKN,,0.01,806.0,WeatherDisplay:10.37,2013-04-17 18:29:00,
2013-04-17 14:34:00,70.8,41.8,30.05,North,0,5.8,5.8,35,0.00,BKN,,0.01,795.0,WeatherDisplay:10.37,2013-04-17 18:34:00,
2013-04-17 14:39:00,70.4,42.2,30.05,NNW,344,5.0,5.0,36,0.00,BKN,,0.01,792.0,WeatherDisplay:10.37,2013-04-17 18:39:00,
2013-04-17 14:44:00,70.4,41.4,30.05,NNW,328,3.0,3.0,35,0.00,BKN,,0.01,765.0,WeatherDisplay:10.37,2013-04-17 18:44:00,
2013-04-17 14:49:00,70.4,41.4,30.05,North,0,5.8,5.8,35,0.00,BKN,,0.01,792.0,WeatherDisplay:10.37,2013-04-17 18:49:00,
2013-04-17 14:54:00,70.6,40.9,30.05,NNW,346,11.5,11.5,34,0.00,BKN,,0.01,757.0,WeatherDisplay:10.37,2013-04-17 18:54:00,
2013-04-17 14:59:00,70.8,41.0,30.04,NNW,347,3.0,3.0,34,0.00,BKN,,0.01,767.0,WeatherDisplay:10.37,2013-04-17 18:59:00,
2013-04-17 15:04:00,70.9,39.6,30.04,NW,309,3.5,3.5,32,0.00,BKN,,0.01,697.0,WeatherDisplay:10.37,2013-04-17 19:04:00,
2013-04-17 15:09:00,71.1,38.9,30.04,SW,233,2.3,2.3,31,0.00,BKN,,0.01,760.0,WeatherDisplay:10.37,2013-04-17 19:09:00,
2013-04-17 15:14:00,71.6,40.2,30.03,NNW,346,0.0,0.0,32,0.00,BKN,,0.01,748.0,WeatherDisplay:10.37,2013-04-17 19:14:00,
2013-04-17 15:19:00,71.8,40.3,30.03,NW,304,3.5,3.5,32,0.00,BKN,,0.01,723.0,WeatherDisplay:10.37,2013-04-17 19:19:00,
2013-04-17 15:24:00,71.8,40.3,30.03,North,0,4.6,4.6,32,0.00,BKN,,0.01,716.0,WeatherDisplay:10.37,2013-04-17 19:24:00,
2013-04-17 15:29:00,72.1,39.8,30.03,NNW,342,3.5,3.5,31,0.00,BKN,,0.01,700.0,WeatherDisplay:10.37,2013-04-17 19:29:00,
2013-04-17 15:34:00,72.1,39.8,30.03,SW,219,1.1,1.1,31,0.00,BKN,,0.01,691.0,WeatherDisplay:10.37,2013-04-17 19:34:00,
2013-04-17 15:39:00,72.3,40.8,30.03,West,274,5.8,5.8,32,0.00,BKN,,0.01,681.0,WeatherDisplay:10.37,2013-04-17 19:39:00,
2013-04-17 15:44:00,72.5,40.1,30.03,ENE,78,2.0,2.0,31,0.00,BKN,,0.01,667.0,WeatherDisplay:10.37,2013-04-17 19:44:00,
2013-04-17 15:49:00,72.3,40.0,30.03,NNW,343,1.1,1.1,31,0.00,BKN,,0.01,653.0,WeatherDisplay:10.37,2013-04-17 19:49:00,
2013-04-17 15:54:00,72.3,40.0,30.03,SSE,154,1.1,1.1,31,0.00,BKN,,0.01,646.0,WeatherDisplay:10.37,2013-04-17 19:54:00,
2013-04-17 15:59:00,72.3,40.0,30.03,NNW,342,3.5,3.5,31,0.00,BKN,,0.01,632.0,WeatherDisplay:10.37,2013-04-17 19:59:00,
2013-04-17 16:04:00,72.5,40.1,30.03,North,350,1.1,1.1,31,0.00,SCT,,0.01,616.0,WeatherDisplay:10.37,2013-04-17 20:04:00,
2013-04-17 16:09:00,72.1,39.8,30.03,East,100,2.3,0.0,31,0.00,SCT,,0.01,605.0,WeatherDisplay:10.37,2013-04-17 20:09:00,
2013-04-17 16:14:00,71.8,40.3,30.03,WNW,282,4.6,4.6,32,0.00,SCT,,0.01,589.0,WeatherDisplay:10.37,2013-04-17 20:14:00,
2013-04-17 16:19:00,72.0,39.7,30.03,North,1,3.5,3.5,31,0.00,SCT,,0.01,575.0,WeatherDisplay:10.37,2013-04-17 20:19:00,
2013-04-17 16:24:00,72.1,39.8,30.03,WNW,295,3.5,3.5,31,0.00,SCT,,0.01,561.0,WeatherDisplay:10.37,2013-04-17 20:24:00,
2013-04-17 16:29:00,72.1,39.8,30.03,North,349,3.5,3.5,31,0.00,SCT,,0.01,545.0,WeatherDisplay:10.37,2013-04-17 20:29:00,
2013-04-17 16:34:00,71.8,39.5,30.03,North,0,5.0,5.0,31,0.00,SCT,,0.01,531.0,WeatherDisplay:10.37,2013-04-17 20:34:00,
2013-04-17 16:39:00,71.8,39.5,30.03,WNW,295,2.3,0.0,31,0.00,SCT,,0.01,514.0,WeatherDisplay:10.37,2013-04-17 20:39:00,
2013-04-17 16:44:00,71.6,39.3,30.03,NNW,335,3.0,3.0,31,0.00,SCT,,0.01,501.0,WeatherDisplay:10.37,2013-04-17 20:44:00,
2013-04-17 16:49:00,71.5,39.3,30.03,NW,308,1.1,0.0,31,0.00,SCT,,0.01,60.0,WeatherDisplay:10.37,2013-04-17 20:49:00,
2013-04-17 16:54:00,71.3,39.1,30.03,NNW,339,3.5,3.5,31,0.00,SCT,,0.01,58.0,WeatherDisplay:10.37,2013-04-17 20:54:00,
2013-04-17 16:59:00,71.3,39.1,30.03,NNW,337,2.3,2.3,31,0.00,SCT,,0.01,58.0,WeatherDisplay:10.37,2013-04-17 20:59:00,
2013-04-17 17:04:00,71.1,38.9,30.03,NNW,337,1.1,0.0,31,0.00,SCT,,0.01,58.0,WeatherDisplay:10.37,2013-04-17 21:04:00,
2013-04-17 17:09:00,70.9,38.7,30.03,NNW,337,1.1,0.0,31,0.00,SCT,,0.01,56.0,WeatherDisplay:10.37,2013-04-17 21:09:00,
2013-04-17 17:14:00,70.8,38.7,30.04,NW,319,3.5,3.5,31,0.00,SCT,,0.01,56.0,WeatherDisplay:10.37,2013-04-17 21:14:00,
2013-04-17 17:19:00,70.8,38.7,30.04,NW,323,1.1,0.0,31,0.00,SCT,,0.01,55.0,WeatherDisplay:10.37,2013-04-17 21:19:00,
2013-04-17 17:24:00,70.8,38.7,30.04,NNW,328,1.1,1.1,31,0.00,SCT,,0.01,53.0,WeatherDisplay:10.37,2013-04-17 21:24:00,
2013-04-17 17:29:00,70.6,38.5,30.04,NNW,328,1.1,1.1,31,0.00,SCT,,0.01,53.0,WeatherDisplay:10.37,2013-04-17 21:29:00,
2013-04-17 17:34:00,70.4,39.1,30.04,NW,326,0.0,0.0,32,0.00,SCT,,0.01,60.0,WeatherDisplay:10.37,2013-04-17 21:34:00,
2013-04-17 17:39:00,70.6,39.3,30.04,WNW,302,2.3,2.3,32,0.00,SCT,,0.01,51.0,WeatherDisplay:10.37,2013-04-17 21:39:00,
2013-04-17 17:44:00,70.6,39.3,30.03,NW,305,1.1,1.1,32,0.00,SCT,,0.01,49.0,WeatherDisplay:10.37,2013-04-17 21:44:00,
2013-04-17 17:49:00,70.6,39.3,30.03,NW,305,0.0,0.1,32,0.00,SCT,,0.01,49.0,WeatherDisplay:10.37,2013-04-17 21:49:00,
2013-04-17 17:54:00,70.6,38.5,30.03,NNW,342,1.1,1.1,31,0.00,SCT,,0.01,51.0,WeatherDisplay:10.37,2013-04-17 21:54:00,
2013-04-17 17:59:00,70.6,38.5,30.03,NNW,342,1.1,0.0,31,0.00,SCT,,0.01,51.0,WeatherDisplay:10.37,2013-04-17 21:59:00,
2013-04-17 18:04:00,70.4,38.3,30.03,NNW,342,0.0,0.0,31,0.00,SCT,,0.01,51.0,WeatherDisplay:10.37,2013-04-17 22:04:00,
2013-04-17 18:09:00,70.4,39.1,30.03,NNW,342,1.1,1.1,32,0.00,SCT,,0.01,48.0,WeatherDisplay:10.37,2013-04-17 22:09:00,
2013-04-17 18:14:00,70.3,39.0,30.03,NW,316,0.0,0.3,32,0.00,SCT,,0.01,46.0,WeatherDisplay:10.37,2013-04-17 22:14:00,
2013-04-17 18:19:00,70.3,38.2,30.03,NNW,329,1.1,0.0,31,0.00,SCT,,0.01,44.0,WeatherDisplay:10.37,2013-04-17 22:19:00,
2013-04-17 18:24:00,70.1,38.9,30.03,WNW,296,0.0,0.0,32,0.00,SCT,,0.01,48.0,WeatherDisplay:10.37,2013-04-17 22:24:00,
2013-04-17 18:29:00,70.1,38.9,30.04,WNW,298,1.1,1.1,32,0.00,SCT,,0.01,48.0,WeatherDisplay:10.37,2013-04-17 22:29:00,
2013-04-17 18:34:00,69.9,38.7,30.04,WNW,298,0.0,0.0,32,0.00,SCT,,0.01,53.0,WeatherDisplay:10.37,2013-04-17 22:34:00,
2013-04-17 18:39:00,69.9,39.5,30.04,NW,304,2.3,0.0,33,0.00,SCT,,0.01,58.0,WeatherDisplay:10.37,2013-04-17 22:39:00,
2013-04-17 18:44:00,69.8,38.6,30.04,North,349,1.1,1.1,32,0.00,SCT,,0.01,58.0,WeatherDisplay:10.37,2013-04-17 22:44:00,
2013-04-17 18:49:00,69.8,38.6,30.04,North,349,0.0,0.0,32,0.00,SCT,,0.01,53.0,WeatherDisplay:10.37,2013-04-17 22:49:00,
2013-04-17 18:54:00,69.6,38.4,30.04,North,349,0.0,0.1,32,0.00,SCT,,0.01,49.0,WeatherDisplay:10.37,2013-04-17 22:54:00,
2013-04-17 18:59:00,69.6,39.2,30.05,NNW,347,1.1,1.1,33,0.00,SCT,,0.01,44.0,WeatherDisplay:10.37,2013-04-17 22:59:00,
2013-04-17 19:04:00,69.6,39.2,30.05,NNW,347,0.0,0.1,33,0.00,SCT,,0.01,39.0,WeatherDisplay:10.37,2013-04-17 23:04:00,
2013-04-17 19:09:00,69.4,39.8,30.05,North,349,0.0,0.0,34,0.00,SCT,,0.01,33.0,WeatherDisplay:10.37,2013-04-17 23:09:00,
2013-04-17 19:14:00,69.3,38.9,30.05,North,349,0.0,0.0,33,0.00,SCT,,0.01,32.0,WeatherDisplay:10.37,2013-04-17 23:14:00,
2013-04-17 19:19:00,69.1,38.8,30.05,North,349,1.1,1.1,33,0.00,SCT,,0.01,30.0,WeatherDisplay:10.37,2013-04-17 23:19:00,
2013-04-17 19:24:00,68.9,39.4,30.05,North,349,0.0,0.0,34,0.00,SCT,,0.01,25.0,WeatherDisplay:10.37,2013-04-17 23:24:00,
2013-04-17 19:29:00,68.9,41.5,30.04,North,349,0.0,0.0,37,0.00,SCT,,0.01,19.0,WeatherDisplay:10.37,2013-04-17 23:29:00,
2013-04-17 19:34:00,68.8,40.0,30.04,North,349,0.0,0.0,35,0.00,SCT,,0.01,12.0,WeatherDisplay:10.37,2013-04-17 23:34:00,
2013-04-17 19:39:00,68.4,39.7,30.04,North,349,0.0,0.0,35,0.00,SCT,,0.01,9.0,WeatherDisplay:10.37,2013-04-17 23:39:00,
2013-04-17 19:44:00,68.3,40.3,30.05,North,349,0.0,0.0,36,0.00,SCT,,0.01,7.0,WeatherDisplay:10.37,2013-04-17 23:44:00,
2013-04-17 19:49:00,68.1,40.1,30.05,NNW,347,0.0,0.0,36,0.00,SCT,,0.01,5.0,WeatherDisplay:10.37,2013-04-17 23:49:00,
2013-04-17 19:54:00,67.8,39.1,30.05,North,349,0.0,0.0,35,0.00,SCT,,0.01,0.0,WeatherDisplay:10.37,2013-04-17 23:54:00,
2013-04-17 19:59:00,67.4,38.8,30.05,North,349,0.0,0.0,35,0.00,SCT,,0.01,0.0,WeatherDisplay:10.37,2013-04-17 23:59:00,
2013-04-17 20:04:00,67.3,38.7,30.05,North,349,0.0,0.0,35,0.00,BKN,,0.01,0.0,WeatherDisplay:10.37,2013-04-18 00:04:00,
2013-04-17 20:09:00,66.9,39.1,30.05,North,349,0.0,0.0,36,0.00,BKN,,0.01,0.0,WeatherDisplay:10.37,2013-04-18 00:09:00,
2013-04-17 20:14:00,66.6,37.3,30.06,North,349,0.0,0.0,34,0.00,BKN,,0.01,0.0,WeatherDisplay:10.37,2013-04-18 00:14:00,
2013-04-17 20:19:00,66.4,35.6,30.06,North,349,0.0,0.0,32,0.00,BKN,,0.01,0.0,WeatherDisplay:10.37,2013-04-18 00:19:00,
2013-04-17 20:24:00,66.3,35.5,30.06,North,349,0.0,0.0,32,0.00,BKN,,0.01,0.0,WeatherDisplay:10.37,2013-04-18 00:24:00,
2013-04-17 20:29:00,66.0,34.5,30.06,NNW,347,0.0,0.0,31,0.00,BKN,,0.01,0.0,WeatherDisplay:10.37,2013-04-18 00:29:00,
2013-04-17 20:34:00,65.8,35.9,30.06,North,349,0.0,0.0,33,0.00,BKN,,0.01,0.0,WeatherDisplay:10.37,2013-04-18 00:34:00,
2013-04-17 20:39:00,65.6,35.7,30.06,North,349,0.0,0.0,33,0.00,BKN,,0.01,0.0,WeatherDisplay:10.37,2013-04-18 00:39:00,
2013-04-17 20:44:00,65.3,35.4,30.07,North,349,0.0,0.0,33,0.00,BKN,,0.01,0.0,WeatherDisplay:10.37,2013-04-18 00:44:00,
2013-04-17 20:49:00,65.0,35.2,30.07,South,189,3.5,3.5,33,0.00,BKN,,0.01,0.0,WeatherDisplay:10.37,2013-04-18 00:49:00,
2013-04-17 20:54:00,64.5,44.9,30.07,SE,138,3.5,3.5,49,0.00,BKN,,0.01,0.0,WeatherDisplay:10.37,2013-04-18 00:54:00,
2013-04-17 20:59:00,64.0,46.0,30.08,SSW,195,3.0,3.0,52,0.00,BKN,,0.01,0.0,WeatherDisplay:10.37,2013-04-18 00:59:00,
2013-04-17 21:04:00,63.1,46.2,30.08,ESE,106,2.3,2.3,54,0.00,BKN,,0.01,0.0,WeatherDisplay:10.37,2013-04-18 01:04:00,
2013-04-17 21:09:00,62.3,46.4,30.08,South,186,2.0,2.0,56,0.00,BKN,,0.01,0.0,WeatherDisplay:10.37,2013-04-18 01:09:00,
2013-04-17 21:14:00,61.6,46.2,30.09,ESE,113,3.5,3.5,57,0.00,BKN,,0.01,0.0,WeatherDisplay:10.37,2013-04-18 01:14:00,
2013-04-17 21:19:00,61.0,46.1,30.09,South,191,3.5,3.5,58,0.00,BKN,,0.01,0.0,WeatherDisplay:10.37,2013-04-18 01:19:00,
2013-04-17 21:24:00,60.7,46.3,30.09,SSW,199,1.1,1.1,59,0.00,BKN,,0.01,0.0,WeatherDisplay:10.37,2013-04-18 01:24:00,
2013-04-17 21:29:00,60.2,45.8,30.10,South,182,2.3,2.3,59,0.00,BKN,,0.01,0.0,WeatherDisplay:10.37,2013-04-18 01:29:00,
2013-04-17 21:34:00,59.9,45.5,30.10,SE,136,2.3,2.3,59,0.00,BKN,,0.01,0.0,WeatherDisplay:10.37,2013-04-18 01:34:00,
2013-04-17 21:39:00,59.8,45.9,30.10,South,172,1.1,1.1,60,0.00,BKN,,0.01,0.0,WeatherDisplay:10.37,2013-04-18 01:39:00,
2013-04-17 21:44:00,59.3,45.4,30.11,SE,130,2.3,2.3,60,0.00,BKN,,0.01,0.0,WeatherDisplay:10.37,2013-04-18 01:44:00,
2013-04-17 21:49:00,59.0,45.1,30.11,SE,138,3.5,3.5,60,0.00,BKN,,0.01,0.0,WeatherDisplay:10.37,2013-04-18 01:49:00,
2013-04-17 21:54:00,58.9,45.0,30.11,SSW,199,1.1,1.1,60,0.00,BKN,,0.01,0.0,WeatherDisplay:10.37,2013-04-18 01:54:00,
2013-04-17 21:59:00,58.7,44.8,30.10,SSW,206,4.6,4.6,60,0.00,BKN,,0.01,0.0,WeatherDisplay:10.37,2013-04-18 01:59:00,
2013-04-17 22:04:00,58.4,44.1,30.10,SW,229,2.3,2.3,59,0.00,SCT,,0.01,0.0,WeatherDisplay:10.37,2013-04-18 02:04:00,
2013-04-17 22:09:00,58.4,44.1,30.10,SSW,208,2.3,2.3,59,0.00,SCT,,0.01,0.0,WeatherDisplay:10.37,2013-04-18 02:09:00,
2013-04-17 22:14:00,58.3,44.5,30.10,South,188,2.3,2.3,60,0.00,SCT,,0.01,0.0,WeatherDisplay:10.37,2013-04-18 02:14:00,
2013-04-17 22:19:00,58.1,44.3,30.10,SSW,212,3.5,3.5,60,0.00,SCT,,0.01,0.0,WeatherDisplay:10.37,2013-04-18 02:19:00,
2013-04-17 22:24:00,58.1,44.3,30.10,SSW,206,2.3,2.3,60,0.00,SCT,,0.01,0.0,WeatherDisplay:10.37,2013-04-18 02:24:00,
2013-04-17 22:29:00,58.0,44.2,30.10,SSW,212,2.3,2.3,60,0.00,SCT,,0.01,0.0,WeatherDisplay:10.37,2013-04-18 02:29:00,
2013-04-17 22:34:00,57.8,44.4,30.10,SSW,199,4.6,4.6,61,0.00,SCT,,0.01,0.0,WeatherDisplay:10.37,2013-04-18 02:34:00,
2013-04-17 22:39:00,57.8,44.4,30.10,South,189,1.1,1.1,61,0.00,SCT,,0.01,0.0,WeatherDisplay:10.37,2013-04-18 02:39:00,
2013-04-17 22:44:00,57.6,44.2,30.11,SSE,168,1.1,1.1,61,0.00,SCT,,0.01,0.0,WeatherDisplay:10.37,2013-04-18 02:44:00,
2013-04-17 22:49:00,57.5,44.6,30.11,SSE,162,1.1,0.0,62,0.00,SCT,,0.01,0.0,WeatherDisplay:10.37,2013-04-18 02:49:00,
2013-04-17 22:54:00,57.5,44.6,30.11,South,181,0.0,0.2,62,0.00,SCT,,0.01,0.0,WeatherDisplay:10.37,2013-04-18 02:54:00,
2013-04-17 22:59:00,57.3,44.4,30.11,South,184,2.0,2.0,62,0.00,SCT,,0.01,0.0,WeatherDisplay:10.37,2013-04-18 02:59:00,
2013-04-17 23:04:00,57.2,44.3,30.11,SSW,203,1.1,1.1,62,0.00,FEW,,0.01,0.0,WeatherDisplay:10.37,2013-04-18 03:04:00,
2013-04-17 23:09:00,57.2,44.3,30.11,SSW,203,1.1,1.1,62,0.00,FEW,,0.01,0.0,WeatherDisplay:10.37,2013-04-18 03:09:00,
2013-04-17 23:14:00,57.0,44.1,30.11,South,176,2.0,2.0,62,0.00,FEW,,0.01,0.0,WeatherDisplay:10.37,2013-04-18 03:14:00,
2013-04-17 23:19:00,57.0,43.2,30.11,South,189,6.9,6.9,60,0.00,FEW,,0.01,0.0,WeatherDisplay:10.37,2013-04-18 03:19:00,
2013-04-17 23:24:00,57.0,43.2,30.11,South,175,1.0,1.0,60,0.00,FEW,,0.01,0.0,WeatherDisplay:10.37,2013-04-18 03:24:00,
2013-04-17 23:29:00,56.9,42.7,30.11,South,174,0.0,0.0,59,0.00,FEW,,0.01,0.0,WeatherDisplay:10.37,2013-04-18 03:29:00,
2013-04-17 23:34:00,56.9,42.7,30.11,South,181,0.0,0.0,59,0.00,FEW,,0.01,0.0,WeatherDisplay:10.37,2013-04-18 03:34:00,
2013-04-17 23:39:00,56.7,41.2,30.11,South,182,3.5,3.5,56,0.00,FEW,,0.01,0.0,WeatherDisplay:10.37,2013-04-18 03:39:00,
2013-04-17 23:44:00,56.7,41.2,30.12,South,182,0.0,0.0,56,0.00,FEW,,0.01,0.0,WeatherDisplay:10.37,2013-04-18 03:44:00,
2013-04-17 23:49:00,56.6,40.6,30.12,SSW,198,1.1,0.0,55,0.00,FEW,,0.01,0.0,WeatherDisplay:10.37,2013-04-18 03:49:00,
2013-04-17 23:54:00,56.6,41.1,30.12,SSW,198,0.0,0.0,56,0.00,FEW,,0.01,0.0,WeatherDisplay:10.37,2013-04-18 03:54:00,
2013-04-17 23:59:00,56.5,41.0,30.12,SSW,198,0.0,0.0,56,0.00,FEW,,0.01,0.0,WeatherDisplay:10.37,2013-04-18 03:59:00,